sensor_id;sensor_type;location;lat;lon;timestamp;pressure;altitude;pressure_sealevel;temperature;humidity
57574;BME280;68988;49.000;21.242;2023-04-19T00:02:23;98552.31;;;21.94;40.90
57574;BME280;68988;49.000;21.242;2023-04-19T00:04:49;98554.16;;;21.93;40.73
57574;BME280;68988;49.000;21.242;2023-04-19T00:07:15;98553.09;;;21.94;40.68
57574;BME280;68988;49.000;21.242;2023-04-19T00:09:42;98547.75;;;21.94;40.83
57574;BME280;68988;49.000;21.242;2023-04-19T00:12:08;98540.81;;;21.93;40.67
57574;BME280;68988;49.000;21.242;2023-04-19T00:14:33;98542.69;;;21.93;40.51
57574;BME280;68988;49.000;21.242;2023-04-19T00:16:59;98550.44;;;21.94;40.67
57574;BME280;68988;49.000;21.242;2023-04-19T00:19:24;98540.00;;;21.93;40.64
57574;BME280;68988;49.000;21.242;2023-04-19T00:21:50;98540.81;;;21.93;40.72
57574;BME280;68988;49.000;21.242;2023-04-19T00:24:16;98535.97;;;21.90;40.72
57574;BME280;68988;49.000;21.242;2023-04-19T00:26:42;98527.44;;;21.93;40.91
57574;BME280;68988;49.000;21.242;2023-04-19T00:29:07;98527.97;;;21.90;40.74
57574;BME280;68988;49.000;21.242;2023-04-19T00:31:33;98528.22;;;21.89;40.64
57574;BME280;68988;49.000;21.242;2023-04-19T00:33:59;98529.84;;;21.90;40.90
57574;BME280;68988;49.000;21.242;2023-04-19T00:36:24;98521.28;;;21.88;40.52
57574;BME280;68988;49.000;21.242;2023-04-19T00:38:50;98522.88;;;21.89;40.78
57574;BME280;68988;49.000;21.242;2023-04-19T00:41:16;98517.81;;;21.87;40.89
57574;BME280;68988;49.000;21.242;2023-04-19T00:43:41;98519.41;;;21.88;40.66
57574;BME280;68988;49.000;21.242;2023-04-19T00:46:07;98516.75;;;21.88;40.72
57574;BME280;68988;49.000;21.242;2023-04-19T00:48:33;98509.28;;;21.90;40.79
57574;BME280;68988;49.000;21.242;2023-04-19T00:51:00;98506.06;;;21.88;40.74
57574;BME280;68988;49.000;21.242;2023-04-19T00:53:26;98506.59;;;21.90;40.66
57574;BME280;68988;49.000;21.242;2023-04-19T00:55:51;98514.34;;;21.87;40.72
57574;BME280;68988;49.000;21.242;2023-04-19T00:58:18;98511.66;;;21.87;40.68
57574;BME280;68988;49.000;21.242;2023-04-19T01:00:44;98502.88;;;21.86;40.79
57574;BME280;68988;49.000;21.242;2023-04-19T01:03:10;98496.69;;;21.86;40.70
57574;BME280;68988;49.000;21.242;2023-04-19T01:05:35;98505.28;;;21.88;40.76
57574;BME280;68988;49.000;21.242;2023-04-19T01:08:00;98490.06;;;21.88;40.52
57574;BME280;68988;49.000;21.242;2023-04-19T01:10:26;98492.69;;;21.83;40.57
57574;BME280;68988;49.000;21.242;2023-04-19T01:12:52;98492.19;;;21.86;40.93
57574;BME280;68988;49.000;21.242;2023-04-19T01:15:17;98488.44;;;21.87;40.80
57574;BME280;68988;49.000;21.242;2023-04-19T01:17:43;98484.72;;;21.88;40.52
57574;BME280;68988;49.000;21.242;2023-04-19T01:20:08;98480.44;;;21.87;40.73
57574;BME280;68988;49.000;21.242;2023-04-19T01:22:34;98474.56;;;21.85;40.58
57574;BME280;68988;49.000;21.242;2023-04-19T01:25:02;98472.41;;;21.87;40.55
57574;BME280;68988;49.000;21.242;2023-04-19T01:27:29;98462.25;;;21.84;40.68
57574;BME280;68988;49.000;21.242;2023-04-19T01:29:54;98462.25;;;21.84;40.66
57574;BME280;68988;49.000;21.242;2023-04-19T01:32:20;98461.22;;;21.85;40.89
57574;BME280;68988;49.000;21.242;2023-04-19T01:34:46;98459.59;;;21.84;40.74
57574;BME280;68988;49.000;21.242;2023-04-19T01:37:12;98463.88;;;21.85;40.79
57574;BME280;68988;49.000;21.242;2023-04-19T01:39:37;98461.72;;;21.82;40.65
57574;BME280;68988;49.000;21.242;2023-04-19T01:42:02;98453.72;;;21.82;40.70
57574;BME280;68988;49.000;21.242;2023-04-19T01:44:28;98448.38;;;21.82;40.71
57574;BME280;68988;49.000;21.242;2023-04-19T01:46:54;98451.84;;;21.82;40.77
57574;BME280;68988;49.000;21.242;2023-04-19T01:49:20;98448.66;;;21.86;40.68
57574;BME280;68988;49.000;21.242;2023-04-19T01:51:45;98449.16;;;21.82;40.68
57574;BME280;68988;49.000;21.242;2023-04-19T01:54:11;98451.56;;;21.84;40.74
57574;BME280;68988;49.000;21.242;2023-04-19T01:56:36;98441.41;;;21.81;40.50
57574;BME280;68988;49.000;21.242;2023-04-19T01:59:01;98433.66;;;21.79;40.75
57574;BME280;68988;49.000;21.242;2023-04-19T02:01:28;98440.63;;;21.80;40.78
57574;BME280;68988;49.000;21.242;2023-04-19T02:03:53;98434.78;;;21.84;40.67
57574;BME280;68988;49.000;21.242;2023-04-19T02:06:19;98432.34;;;21.82;40.54
57574;BME280;68988;49.000;21.242;2023-04-19T02:08:44;98434.50;;;21.80;40.63
57574;BME280;68988;49.000;21.242;2023-04-19T02:11:11;98429.69;;;21.82;40.75
57574;BME280;68988;49.000;21.242;2023-04-19T02:13:40;98429.69;;;21.82;40.55
57574;BME280;68988;49.000;21.242;2023-04-19T02:16:06;98432.34;;;21.82;40.64
57574;BME280;68988;49.000;21.242;2023-04-19T02:18:32;98430.47;;;21.77;40.66
57574;BME280;68988;49.000;21.242;2023-04-19T02:21:03;98423.25;;;21.78;40.57
57574;BME280;68988;49.000;21.242;2023-04-19T02:23:29;98423.81;;;21.80;40.59
57574;BME280;68988;49.000;21.242;2023-04-19T02:25:55;98423.25;;;21.78;40.47
57574;BME280;68988;49.000;21.242;2023-04-19T02:28:20;98413.66;;;21.77;40.55
57574;BME280;68988;49.000;21.242;2023-04-19T02:30:46;98419.53;;;21.79;40.54
57574;BME280;68988;49.000;21.242;2023-04-19T02:33:11;98414.19;;;21.79;40.67
57574;BME280;68988;49.000;21.242;2023-04-19T02:35:37;98413.91;;;21.75;40.71
57574;BME280;68988;49.000;21.242;2023-04-19T02:38:03;98413.66;;;21.77;40.74
57574;BME280;68988;49.000;21.242;2023-04-19T02:40:29;98413.66;;;21.77;40.61
57574;BME280;68988;49.000;21.242;2023-04-19T02:42:55;98414.72;;;21.76;40.68
57574;BME280;68988;49.000;21.242;2023-04-19T02:45:20;98412.03;;;21.76;40.61
57574;BME280;68988;49.000;21.242;2023-04-19T02:47:46;98406.69;;;21.76;40.77
57574;BME280;68988;49.000;21.242;2023-04-19T02:50:12;98402.97;;;21.77;40.47
57574;BME280;68988;49.000;21.242;2023-04-19T02:52:37;98393.63;;;21.74;40.55
57574;BME280;68988;49.000;21.242;2023-04-19T02:55:04;98394.41;;;21.75;40.53
57574;BME280;68988;49.000;21.242;2023-04-19T02:57:29;98398.16;;;21.74;40.52
57574;BME280;68988;49.000;21.242;2023-04-19T02:59:55;98395.50;;;21.74;40.67
57574;BME280;68988;49.000;21.242;2023-04-19T03:02:20;98381.06;;;21.75;40.72
57574;BME280;68988;49.000;21.242;2023-04-19T03:04:46;98387.47;;;21.74;40.61
57574;BME280;68988;49.000;21.242;2023-04-19T03:07:12;98370.66;;;21.73;40.65
57574;BME280;68988;49.000;21.242;2023-04-19T03:09:38;98375.19;;;21.73;40.60
57574;BME280;68988;49.000;21.242;2023-04-19T03:12:04;98365.31;;;21.73;40.56
57574;BME280;68988;49.000;21.242;2023-04-19T03:14:29;98368.22;;;21.72;40.51
57574;BME280;68988;49.000;21.242;2023-04-19T03:16:55;98363.16;;;21.70;40.53
57574;BME280;68988;49.000;21.242;2023-04-19T03:19:20;98362.38;;;21.75;40.41
57574;BME280;68988;49.000;21.242;2023-04-19T03:21:46;98359.19;;;21.73;40.48
57574;BME280;68988;49.000;21.242;2023-04-19T03:24:12;98355.97;;;21.71;40.73
57574;BME280;68988;49.000;21.242;2023-04-19T03:26:37;98353.56;;;21.69;40.42
57574;BME280;68988;49.000;21.242;2023-04-19T03:29:03;98354.34;;;21.70;40.68
57574;BME280;68988;49.000;21.242;2023-04-19T03:31:28;98355.47;;;21.74;40.53
57574;BME280;68988;49.000;21.242;2023-04-19T03:33:53;98352.47;;;21.70;40.62
57574;BME280;68988;49.000;21.242;2023-04-19T03:36:20;98358.38;;;21.72;40.57
57574;BME280;68988;49.000;21.242;2023-04-19T03:38:45;98357.56;;;21.72;40.55
57574;BME280;68988;49.000;21.242;2023-04-19T03:41:21;98357.03;;;21.75;40.58
57574;BME280;68988;49.000;21.242;2023-04-19T03:43:46;98356.50;;;21.73;40.61
57574;BME280;68988;49.000;21.242;2023-04-19T03:46:12;98354.34;;;21.70;40.65
57574;BME280;68988;49.000;21.242;2023-04-19T03:48:37;98352.47;;;21.70;40.50
57574;BME280;68988;49.000;21.242;2023-04-19T03:51:02;98352.75;;;21.69;40.58
57574;BME280;68988;49.000;21.242;2023-04-19T03:53:28;98353.81;;;21.68;40.29
57574;BME280;68988;49.000;21.242;2023-04-19T03:55:53;98359.69;;;21.70;40.58
57574;BME280;68988;49.000;21.242;2023-04-19T03:58:18;98353.00;;;21.67;40.52
57574;BME280;68988;49.000;21.242;2023-04-19T04:00:44;98345.81;;;21.68;40.58
57574;BME280;68988;49.000;21.242;2023-04-19T04:03:10;98354.34;;;21.70;40.69
57574;BME280;68988;49.000;21.242;2023-04-19T04:05:35;98347.66;;;21.67;40.30
57574;BME280;68988;49.000;21.242;2023-04-19T04:08:00;98344.19;;;21.67;40.54
57574;BME280;68988;49.000;21.242;2023-04-19T04:10:26;98347.66;;;21.67;40.66
57574;BME280;68988;49.000;21.242;2023-04-19T04:12:51;98346.06;;;21.66;40.51
57574;BME280;68988;49.000;21.242;2023-04-19T04:15:17;98352.19;;;21.67;40.60
57574;BME280;68988;49.000;21.242;2023-04-19T04:17:42;98346.88;;;21.67;40.49
57574;BME280;68988;49.000;21.242;2023-04-19T04:20:08;98349.53;;;21.67;40.53
57574;BME280;68988;49.000;21.242;2023-04-19T04:22:34;98353.56;;;21.69;40.49
57574;BME280;68988;49.000;21.242;2023-04-19T04:24:59;98350.13;;;21.74;40.55
57574;BME280;68988;49.000;21.242;2023-04-19T04:27:26;98348.75;;;21.66;40.57
57574;BME280;68988;49.000;21.242;2023-04-19T04:29:51;98347.13;;;21.65;40.57
57574;BME280;68988;49.000;21.242;2023-04-19T04:32:17;98356.50;;;21.68;40.57
57574;BME280;68988;49.000;21.242;2023-04-19T04:34:47;98346.06;;;21.66;40.63
57574;BME280;68988;49.000;21.242;2023-04-19T04:37:12;98353.00;;;21.67;40.66
57574;BME280;68988;49.000;21.242;2023-04-19T04:39:37;98342.59;;;21.66;40.67
57574;BME280;68988;49.000;21.242;2023-04-19T04:42:05;98347.91;;;21.66;40.63
57574;BME280;68988;49.000;21.242;2023-04-19T04:44:33;98342.59;;;21.66;40.45
57574;BME280;68988;49.000;21.242;2023-04-19T04:46:59;98345.25;;;21.66;40.53
57574;BME280;68988;49.000;21.242;2023-04-19T04:49:25;98343.16;;;21.68;40.72
57574;BME280;68988;49.000;21.242;2023-04-19T04:51:50;98339.13;;;21.70;40.62
57574;BME280;68988;49.000;21.242;2023-04-19T04:54:15;98335.16;;;21.73;40.86
57574;BME280;68988;49.000;21.242;2023-04-19T04:56:41;98345.84;;;21.78;40.50
57574;BME280;68988;49.000;21.242;2023-04-19T04:59:06;98339.19;;;21.80;40.85
57574;BME280;68988;49.000;21.242;2023-04-19T05:01:32;98344.28;;;21.82;41.24
57574;BME280;68988;49.000;21.242;2023-04-19T05:03:58;98339.47;;;21.84;41.08
57574;BME280;68988;49.000;21.242;2023-04-19T05:06:23;98338.41;;;21.85;41.08
57574;BME280;68988;49.000;21.242;2023-04-19T05:08:48;98332.03;;;21.86;41.27
57574;BME280;68988;49.000;21.242;2023-04-19T05:11:14;98343.25;;;21.88;41.37
57574;BME280;68988;49.000;21.242;2023-04-19T05:13:40;98344.34;;;21.92;41.21
57574;BME280;68988;49.000;21.242;2023-04-19T05:16:06;98336.59;;;21.91;41.32
57574;BME280;68988;49.000;21.242;2023-04-19T05:18:31;98334.72;;;21.96;41.30
57574;BME280;68988;49.000;21.242;2023-04-19T05:20:56;98332.88;;;21.97;40.89
57574;BME280;68988;49.000;21.242;2023-04-19T05:23:22;98342.47;;;21.98;41.20
57574;BME280;68988;49.000;21.242;2023-04-19T05:25:47;98332.56;;;21.93;41.15
57574;BME280;68988;49.000;21.242;2023-04-19T05:28:13;98335.81;;;22.00;41.20
57574;BME280;68988;49.000;21.242;2023-04-19T05:30:38;98338.22;;;22.02;41.11
57574;BME280;68988;49.000;21.242;2023-04-19T05:33:04;98331.00;;;21.97;40.81
57574;BME280;68988;49.000;21.242;2023-04-19T05:35:29;98341.69;;;22.03;41.12
57574;BME280;68988;49.000;21.242;2023-04-19T05:37:55;98327.81;;;22.00;41.02
57574;BME280;68988;49.000;21.242;2023-04-19T05:40:20;98335.81;;;22.06;41.09
57574;BME280;68988;49.000;21.242;2023-04-19T05:42:47;98336.13;;;22.09;41.09
57574;BME280;68988;49.000;21.242;2023-04-19T05:45:14;98334.50;;;22.08;41.18
57574;BME280;68988;49.000;21.242;2023-04-19T05:47:40;98340.38;;;22.10;41.03
57574;BME280;68988;49.000;21.242;2023-04-19T05:50:06;98338.53;;;22.11;41.12
57574;BME280;68988;49.000;21.242;2023-04-19T05:52:31;98337.44;;;22.12;41.00
57574;BME280;68988;49.000;21.242;2023-04-19T05:54:57;98337.19;;;22.13;40.85
57574;BME280;68988;49.000;21.242;2023-04-19T05:57:23;98342.56;;;22.18;41.94
57574;BME280;68988;49.000;21.242;2023-04-19T05:59:48;98333.19;;;22.21;41.74
57574;BME280;68988;49.000;21.242;2023-04-19T06:02:14;98342.03;;;22.22;41.94
57574;BME280;68988;49.000;21.242;2023-04-19T06:04:39;98343.09;;;22.21;42.02
57574;BME280;68988;49.000;21.242;2023-04-19T06:07:05;98344.44;;;22.23;42.04
57574;BME280;68988;49.000;21.242;2023-04-19T06:09:31;98346.56;;;22.21;41.79
57574;BME280;68988;49.000;21.242;2023-04-19T06:11:56;98347.66;;;22.25;41.84
57574;BME280;68988;49.000;21.242;2023-04-19T06:14:22;98344.97;;;22.25;41.84
57574;BME280;68988;49.000;21.242;2023-04-19T06:16:47;98347.13;;;22.28;41.71
57574;BME280;68988;49.000;21.242;2023-04-19T06:19:13;98349.25;;;22.26;41.86
57574;BME280;68988;49.000;21.242;2023-04-19T06:21:38;98346.59;;;22.26;41.89
57574;BME280;68988;49.000;21.242;2023-04-19T06:24:07;98348.78;;;22.34;41.78
57574;BME280;68988;49.000;21.242;2023-04-19T06:26:32;98341.50;;;22.30;41.74
57574;BME280;68988;49.000;21.242;2023-04-19T06:28:58;98343.44;;;22.34;41.66
57574;BME280;68988;49.000;21.242;2023-04-19T06:31:23;98345.56;;;22.32;41.84
57574;BME280;68988;49.000;21.242;2023-04-19T06:33:49;98348.50;;;22.36;41.58
57574;BME280;68988;49.000;21.242;2023-04-19T06:36:14;98346.63;;;22.37;41.60
57574;BME280;68988;49.000;21.242;2023-04-19T06:38:40;98336.25;;;22.40;41.79
57574;BME280;68988;49.000;21.242;2023-04-19T06:41:06;98343.16;;;22.36;41.69
57574;BME280;68988;49.000;21.242;2023-04-19T06:43:31;98336.75;;;22.37;41.52
57574;BME280;68988;49.000;21.242;2023-04-19T06:46:00;98342.63;;;22.39;41.39
57574;BME280;68988;49.000;21.242;2023-04-19T06:48:26;98342.91;;;22.43;41.58
57574;BME280;68988;49.000;21.242;2023-04-19T06:50:52;98340.22;;;22.43;41.55
57574;BME280;68988;49.000;21.242;2023-04-19T06:53:18;98340.50;;;22.41;41.51
57574;BME280;68988;49.000;21.242;2023-04-19T06:55:44;98342.38;;;22.41;41.64
57574;BME280;68988;49.000;21.242;2023-04-19T06:58:09;98337.28;;;22.39;41.91
57574;BME280;68988;49.000;21.242;2023-04-19T07:00:38;98339.97;;;22.44;41.67
57574;BME280;68988;49.000;21.242;2023-04-19T07:03:03;98334.88;;;22.43;41.81
57574;BME280;68988;49.000;21.242;2023-04-19T07:05:30;98341.84;;;22.44;41.65
57574;BME280;68988;49.000;21.242;2023-04-19T07:07:55;98350.91;;;22.43;41.96
57574;BME280;68988;49.000;21.242;2023-04-19T07:10:21;98338.13;;;22.45;41.80
57574;BME280;68988;49.000;21.242;2023-04-19T07:12:46;98342.13;;;22.47;42.02
57574;BME280;68988;49.000;21.242;2023-04-19T07:15:12;98340.78;;;22.50;41.75
57574;BME280;68988;49.000;21.242;2023-04-19T07:17:37;98341.59;;;22.50;41.96
57574;BME280;68988;49.000;21.242;2023-04-19T07:20:03;98346.13;;;22.50;41.99
57574;BME280;68988;49.000;21.242;2023-04-19T07:22:31;98347.22;;;22.54;41.90
57574;BME280;68988;49.000;21.242;2023-04-19T07:24:56;98345.88;;;22.57;42.06
57574;BME280;68988;49.000;21.242;2023-04-19T07:27:22;98356.28;;;22.58;42.08
57574;BME280;68988;49.000;21.242;2023-04-19T07:29:48;98359.50;;;22.55;41.97
57574;BME280;68988;49.000;21.242;2023-04-19T07:32:13;98351.47;;;22.55;42.02
57574;BME280;68988;49.000;21.242;2023-04-19T07:34:39;98353.34;;;22.60;42.01
57574;BME280;68988;49.000;21.242;2023-04-19T07:37:06;98358.44;;;22.51;42.26
57574;BME280;68988;49.000;21.242;2023-04-19T07:39:31;98353.09;;;22.51;42.07
57574;BME280;68988;49.000;21.242;2023-04-19T07:41:57;98356.28;;;22.53;42.05
57574;BME280;68988;49.000;21.242;2023-04-19T07:44:22;98352.03;;;22.57;42.06
57574;BME280;68988;49.000;21.242;2023-04-19T07:46:48;98358.19;;;22.58;41.90
57574;BME280;68988;49.000;21.242;2023-04-19T07:49:14;98361.38;;;22.60;42.14
57574;BME280;68988;49.000;21.242;2023-04-19T07:51:40;98353.09;;;22.61;42.28
57574;BME280;68988;49.000;21.242;2023-04-19T07:54:05;98356.06;;;22.65;42.37
57574;BME280;68988;49.000;21.242;2023-04-19T07:56:31;98357.38;;;22.62;42.58
57574;BME280;68988;49.000;21.242;2023-04-19T07:58:57;98351.25;;;22.67;42.35
57574;BME280;68988;49.000;21.242;2023-04-19T08:01:23;98363.28;;;22.69;42.26
57574;BME280;68988;49.000;21.242;2023-04-19T08:03:48;98359.78;;;22.69;42.22
57574;BME280;68988;49.000;21.242;2023-04-19T08:06:14;98360.31;;;22.66;41.80
57574;BME280;68988;49.000;21.242;2023-04-19T08:08:39;98355.78;;;22.66;42.15
57574;BME280;68988;49.000;21.242;2023-04-19T08:11:05;98363.56;;;22.68;42.01
57574;BME280;68988;49.000;21.242;2023-04-19T08:13:30;98361.13;;;22.66;42.03
57574;BME280;68988;49.000;21.242;2023-04-19T08:15:56;98372.63;;;22.67;42.29
57574;BME280;68988;49.000;21.242;2023-04-19T08:18:21;98373.16;;;22.69;42.38
57574;BME280;68988;49.000;21.242;2023-04-19T08:20:47;98363.53;;;22.73;42.44
57574;BME280;68988;49.000;21.242;2023-04-19T08:23:13;98368.63;;;22.75;42.19
57574;BME280;68988;49.000;21.242;2023-04-19T08:25:38;98366.22;;;22.73;42.69
57574;BME280;68988;49.000;21.242;2023-04-19T08:28:04;98366.47;;;22.71;42.63
57574;BME280;68988;49.000;21.242;2023-04-19T08:30:29;98363.53;;;22.73;42.78
57574;BME280;68988;49.000;21.242;2023-04-19T08:32:55;98357.94;;;22.69;42.74
57574;BME280;68988;49.000;21.242;2023-04-19T08:35:21;98361.66;;;22.74;42.76
57574;BME280;68988;49.000;21.242;2023-04-19T08:37:47;98364.06;;;22.75;42.89
57574;BME280;68988;49.000;21.242;2023-04-19T08:40:14;98369.16;;;22.77;43.02
57574;BME280;68988;49.000;21.242;2023-04-19T08:42:41;98361.69;;;22.79;42.95
57574;BME280;68988;49.000;21.242;2023-04-19T08:45:07;98367.28;;;22.82;43.05
57574;BME280;68988;49.000;21.242;2023-04-19T08:47:33;98364.06;;;22.75;43.07
57574;BME280;68988;49.000;21.242;2023-04-19T08:49:59;98364.88;;;22.70;42.94
57574;BME280;68988;49.000;21.242;2023-04-19T08:52:26;98366.75;;;22.75;42.83
57574;BME280;68988;49.000;21.242;2023-04-19T08:54:53;98365.44;;;22.78;43.01
57574;BME280;68988;49.000;21.242;2023-04-19T08:57:19;98366.25;;;22.83;42.85
57574;BME280;68988;49.000;21.242;2023-04-19T08:59:44;98364.63;;;22.82;42.69
57574;BME280;68988;49.000;21.242;2023-04-19T09:02:13;98364.88;;;22.86;42.77
57574;BME280;68988;49.000;21.242;2023-04-19T09:04:39;98369.72;;;22.84;42.77
57574;BME280;68988;49.000;21.242;2023-04-19T09:07:05;98361.69;;;22.84;42.72
57574;BME280;68988;49.000;21.242;2023-04-19T09:09:32;98361.69;;;22.89;42.69
57574;BME280;68988;49.000;21.242;2023-04-19T09:12:00;98366.75;;;22.85;42.85
57574;BME280;68988;49.000;21.242;2023-04-19T09:14:26;98365.72;;;22.86;42.78
57574;BME280;68988;49.000;21.242;2023-04-19T09:16:52;98362.22;;;22.91;42.69
57574;BME280;68988;49.000;21.242;2023-04-19T09:19:18;98358.75;;;22.85;42.66
57574;BME280;68988;49.000;21.242;2023-04-19T09:21:44;98357.69;;;22.86;42.89
57574;BME280;68988;49.000;21.242;2023-04-19T09:24:10;98360.63;;;22.90;42.80
57574;BME280;68988;49.000;21.242;2023-04-19T09:26:35;98358.22;;;22.88;42.95
57574;BME280;68988;49.000;21.242;2023-04-19T09:29:06;98356.88;;;22.91;43.00
57574;BME280;68988;49.000;21.242;2023-04-19T09:31:33;98351.00;;;22.89;43.15
57574;BME280;68988;49.000;21.242;2023-04-19T09:34:18;98356.63;;;22.98;43.12
57574;BME280;68988;49.000;21.242;2023-04-19T09:36:44;98357.94;;;22.95;43.29
57574;BME280;68988;49.000;21.242;2023-04-19T09:39:10;98353.94;;;22.93;43.38
57574;BME280;68988;49.000;21.242;2023-04-19T09:41:52;98357.16;;;22.95;43.39
57574;BME280;68988;49.000;21.242;2023-04-19T09:44:18;98360.09;;;22.93;43.21
57574;BME280;68988;49.000;21.242;2023-04-19T09:46:43;98357.41;;;22.93;43.40
57574;BME280;68988;49.000;21.242;2023-04-19T09:51:47;98363.84;;;22.97;43.70
57574;BME280;68988;49.000;21.242;2023-04-19T09:54:15;98369.72;;;22.99;43.54
57574;BME280;68988;49.000;21.242;2023-04-19T09:56:41;98360.91;;;22.99;43.54
57574;BME280;68988;49.000;21.242;2023-04-19T09:59:08;98362.22;;;23.01;43.69
57574;BME280;68988;49.000;21.242;2023-04-19T10:04:12;98370.25;;;23.01;43.86
57574;BME280;68988;49.000;21.242;2023-04-19T10:06:39;98370.25;;;23.01;43.85
57574;BME280;68988;49.000;21.242;2023-04-19T10:09:08;98368.91;;;22.99;43.86
57574;BME280;68988;49.000;21.242;2023-04-19T10:11:36;98363.28;;;22.95;43.91
57574;BME280;68988;49.000;21.242;2023-04-19T10:14:07;98364.88;;;23.01;43.41
57574;BME280;68988;49.000;21.242;2023-04-19T10:16:34;98367.03;;;23.04;43.16
57574;BME280;68988;49.000;21.242;2023-04-19T10:19:11;98364.91;;;23.06;43.30
57574;BME280;68988;49.000;21.242;2023-04-19T10:21:39;98363.59;;;23.14;43.42
57574;BME280;68988;49.000;21.242;2023-04-19T10:24:06;98364.13;;;23.11;43.36
57574;BME280;68988;49.000;21.242;2023-04-19T10:30:01;98356.66;;;23.13;43.48
57574;BME280;68988;49.000;21.242;2023-04-19T10:32:39;98355.03;;;23.12;43.41
57574;BME280;68988;49.000;21.242;2023-04-19T10:35:09;98353.19;;;23.13;43.61
57574;BME280;68988;49.000;21.242;2023-04-19T10:37:38;98347.81;;;23.13;43.60
57574;BME280;68988;49.000;21.242;2023-04-19T10:40:05;98346.22;;;23.12;43.88
57574;BME280;68988;49.000;21.242;2023-04-19T10:45:34;98339.00;;;23.17;43.81
57574;BME280;68988;49.000;21.242;2023-04-19T10:48:02;98343.53;;;23.12;44.13
57574;BME280;68988;49.000;21.242;2023-04-19T10:50:28;98341.13;;;23.15;43.77
57574;BME280;68988;49.000;21.242;2023-04-19T10:52:54;98344.06;;;23.14;43.89
57574;BME280;68988;49.000;21.242;2023-04-19T10:55:19;98339.78;;;23.23;43.90
57574;BME280;68988;49.000;21.242;2023-04-19T10:58:04;98336.56;;;23.26;43.78
57574;BME280;68988;49.000;21.242;2023-04-19T11:00:30;98341.41;;;23.19;43.97
57574;BME280;68988;49.000;21.242;2023-04-19T11:02:58;98332.84;;;23.12;43.99
57574;BME280;68988;49.000;21.242;2023-04-19T11:05:24;98348.06;;;23.16;44.05
57574;BME280;68988;49.000;21.242;2023-04-19T11:07:50;98345.13;;;23.18;44.00
57574;BME280;68988;49.000;21.242;2023-04-19T11:10:27;98340.59;;;23.23;43.71
57574;BME280;68988;49.000;21.242;2023-04-19T11:12:54;98341.13;;;23.20;44.01
57574;BME280;68988;49.000;21.242;2023-04-19T11:15:23;98347.00;;;23.22;43.86
57574;BME280;68988;49.000;21.242;2023-04-19T11:17:49;98349.69;;;23.22;44.03
57574;BME280;68988;49.000;21.242;2023-04-19T11:20:22;98342.47;;;23.28;44.09
57574;BME280;68988;49.000;21.242;2023-04-19T11:22:47;98343.25;;;23.39;44.16
57574;BME280;68988;49.000;21.242;2023-04-19T11:25:15;98351.28;;;23.29;44.11
57574;BME280;68988;49.000;21.242;2023-04-19T11:27:42;98337.38;;;23.27;44.16
57574;BME280;68988;49.000;21.242;2023-04-19T11:30:11;98344.03;;;23.29;44.28
57574;BME280;68988;49.000;21.242;2023-04-19T11:32:43;98339.50;;;23.35;44.06
57574;BME280;68988;49.000;21.242;2023-04-19T11:35:09;98340.06;;;23.27;44.31
57574;BME280;68988;49.000;21.242;2023-04-19T11:37:35;98338.19;;;23.27;44.23
57574;BME280;68988;49.000;21.242;2023-04-19T11:40:01;98340.84;;;23.27;44.16
57574;BME280;68988;49.000;21.242;2023-04-19T11:42:28;98344.84;;;23.24;44.13
57574;BME280;68988;49.000;21.242;2023-04-19T11:44:54;98337.09;;;23.23;44.23
57574;BME280;68988;49.000;21.242;2023-04-19T11:47:21;98339.50;;;23.24;44.31
57574;BME280;68988;49.000;21.242;2023-04-19T11:49:47;98334.97;;;23.25;44.19
57574;BME280;68988;49.000;21.242;2023-04-19T11:52:19;98341.91;;;23.26;43.98
57574;BME280;68988;49.000;21.242;2023-04-19T11:54:45;98337.66;;;23.25;44.20
57574;BME280;68988;49.000;21.242;2023-04-19T11:57:11;98338.97;;;23.22;44.08
57574;BME280;68988;49.000;21.242;2023-04-19T11:59:36;98345.69;;;23.25;44.34
57574;BME280;68988;49.000;21.242;2023-04-19T12:02:06;98343.25;;;23.29;44.24
57574;BME280;68988;49.000;21.242;2023-04-19T12:04:31;98343.81;;;23.20;44.16
57574;BME280;68988;49.000;21.242;2023-04-19T12:06:58;98336.03;;;23.24;44.27
57574;BME280;68988;49.000;21.242;2023-04-19T12:09:24;98337.66;;;23.25;44.24
57574;BME280;68988;49.000;21.242;2023-04-19T12:11:49;98330.41;;;23.26;44.12
57574;BME280;68988;49.000;21.242;2023-04-19T12:14:17;98331.47;;;23.35;44.12
57574;BME280;68988;49.000;21.242;2023-04-19T12:16:53;98336.28;;;23.28;44.37
57574;BME280;68988;49.000;21.242;2023-04-19T12:19:27;98330.94;;;23.28;44.08
57574;BME280;68988;49.000;21.242;2023-04-19T12:21:52;98335.50;;;23.27;44.38
57574;BME280;68988;49.000;21.242;2023-04-19T12:24:17;98326.69;;;23.27;43.98
57574;BME280;68988;49.000;21.242;2023-04-19T12:26:54;98330.41;;;23.31;44.11
57574;BME280;68988;49.000;21.242;2023-04-19T12:29:20;98322.91;;;23.28;44.03
57574;BME280;68988;49.000;21.242;2023-04-19T12:31:46;98321.34;;;23.27;44.47
57574;BME280;68988;49.000;21.242;2023-04-19T12:34:11;98323.19;;;23.26;44.08
57574;BME280;68988;49.000;21.242;2023-04-19T12:36:36;98324.00;;;23.27;44.34
57574;BME280;68988;49.000;21.242;2023-04-19T12:39:02;98323.75;;;23.28;44.38
57574;BME280;68988;49.000;21.242;2023-04-19T12:41:27;98317.31;;;23.24;44.26
57574;BME280;68988;49.000;21.242;2023-04-19T12:43:53;98318.91;;;23.30;44.17
57574;BME280;68988;49.000;21.242;2023-04-19T12:46:18;98310.88;;;23.30;43.91
57574;BME280;68988;49.000;21.242;2023-04-19T12:48:43;98309.28;;;23.29;44.11
57574;BME280;68988;49.000;21.242;2023-04-19T12:51:09;98317.84;;;23.31;44.01
57574;BME280;68988;49.000;21.242;2023-04-19T12:53:34;98313.56;;;23.30;44.25
57574;BME280;68988;49.000;21.242;2023-04-19T12:56:00;98316.78;;;23.27;44.04
57574;BME280;68988;49.000;21.242;2023-04-19T12:58:25;98307.13;;;23.26;44.05